Time;durP1;ratioP1;P1;durP2;ratioP2;P2;SDS_P1;SDS_P2;PMS_P1;PMS_P2;Temp;Humidity;BMP_temperature;BMP_pressure;BME280_temperature;BME280_humidity;BME280_pressure;Samples;Min_cycle;Max_cycle;Signal;HPM_P1;HPM_P2
2022/05/29 00:00:22;;;;;;;7.30;4.30;;;14.70;71.20;;;;;;6180206;23;20402;-87
2022/05/29 00:02:49;;;;;;;7.10;3.90;;;14.80;71.50;;;;;;6171299;23;20427;-86
2022/05/29 00:05:17;;;;;;;6.83;3.80;;;14.70;71.10;;;;;;6163143;23;20407;-86
2022/05/29 00:07:49;;;;;;;6.73;3.43;;;14.70;70.50;;;;;;6158255;23;21020;-87
2022/05/29 00:10:16;;;;;;;3.67;3.13;;;14.80;70.80;;;;;;6158194;23;20403;-86
2022/05/29 00:12:44;;;;;;;5.23;3.70;;;14.80;70.90;;;;;;6157145;23;20437;-86
2022/05/29 00:15:12;;;;;;;5.23;3.10;;;14.90;70.80;;;;;;6157775;23;20395;-86
2022/05/29 00:17:38;;;;;;;4.90;3.07;;;14.80;71.00;;;;;;6158090;23;20413;-86
2022/05/29 00:20:07;;;;;;;5.73;3.27;;;14.80;71.30;;;;;;6165918;23;20760;-85
2022/05/29 00:22:35;;;;;;;5.57;3.30;;;14.70;71.40;;;;;;6163855;23;20440;-86
2022/05/29 00:25:03;;;;;;;6.13;3.30;;;14.70;71.30;;;;;;6184125;23;20391;-86
2022/05/29 00:27:30;;;;;;;5.03;3.60;;;14.80;71.50;;;;;;6182945;23;20487;-86
2022/05/29 00:29:56;;;;;;;7.40;3.73;;;14.80;71.40;;;;;;6182715;23;20420;-86
2022/05/29 00:32:23;;;;;;;4.97;3.00;;;14.80;71.40;;;;;;6178365;23;20454;-86
2022/05/29 00:34:50;;;;;;;4.00;3.60;;;14.70;71.40;;;;;;6160521;23;20407;-86
2022/05/29 00:37:17;;;;;;;5.17;3.40;;;14.80;71.40;;;;;;6158441;23;20846;-86
2022/05/29 00:39:45;;;;;;;3.47;2.70;;;14.80;71.40;;;;;;6158440;23;20387;-86
2022/05/29 00:42:15;;;;;;;6.87;3.40;;;14.70;71.50;;;;;;6181310;23;20410;-86
2022/05/29 00:44:42;;;;;;;5.30;3.20;;;14.70;71.80;;;;;;6174289;23;20395;-86
2022/05/29 00:47:13;;;;;;;5.13;3.37;;;14.70;72.10;;;;;;6159040;23;20980;-86
2022/05/29 00:49:42;;;;;;;3.83;3.37;;;14.70;72.60;;;;;;6158570;23;20403;-87
2022/05/29 00:52:12;;;;;;;4.23;3.83;;;14.70;73.10;;;;;;6157211;23;20464;-86
2022/05/29 00:54:43;;;;;;;4.50;3.47;;;14.70;73.50;;;;;;6157232;23;20391;-86
2022/05/29 00:57:15;;;;;;;6.40;3.53;;;14.70;73.50;;;;;;6157593;23;20390;-86
2022/05/29 00:59:43;;;;;;;4.77;3.60;;;14.70;73.40;;;;;;6157602;23;20387;-86
2022/05/29 01:02:10;;;;;;;4.60;3.30;;;14.80;73.30;;;;;;6156932;23;20926;-86
2022/05/29 01:04:40;;;;;;;5.90;3.77;;;14.70;73.40;;;;;;6157630;23;20919;-87
2022/05/29 01:07:09;;;;;;;3.93;2.77;;;14.70;73.60;;;;;;6165731;23;20418;-86
2022/05/29 01:09:39;;;;;;;6.93;3.50;;;14.70;73.70;;;;;;6165671;23;20405;-86
2022/05/29 01:12:12;;;;;;;5.80;3.37;;;14.70;73.70;;;;;;6152941;23;20434;-87
2022/05/29 01:14:52;;;;;;;4.43;2.80;;;14.70;73.60;;;;;;6134337;23;20396;-84
2022/05/29 01:17:31;;;;;;;3.90;3.50;;;14.70;73.60;;;;;;6137290;23;20405;-85
2022/05/29 01:20:07;;;;;;;3.73;3.00;;;14.70;72.90;;;;;;6139268;23;20387;-86
2022/05/29 01:22:52;;;;;;;3.60;3.20;;;14.70;72.00;;;;;;6152281;23;20435;-87
2022/05/29 01:25:55;;;;;;;4.83;2.50;;;14.70;71.20;;;;;;6133527;23;20395;-85
2022/05/29 01:28:54;;;;;;;5.63;3.03;;;14.60;70.70;;;;;;6134190;23;20428;-85
2022/05/29 01:31:40;;;;;;;4.10;3.10;;;14.70;70.60;;;;;;6153622;23;20442;-89
2022/05/29 01:34:25;;;;;;;7.93;3.57;;;14.60;70.60;;;;;;6150478;23;20423;-86
2022/05/29 01:36:59;;;;;;;2.80;2.50;;;14.60;70.60;;;;;;6139564;23;20403;-86
2022/05/29 01:39:32;;;;;;;3.60;2.60;;;14.60;70.10;;;;;;6130926;23;20772;-87
2022/05/29 01:42:05;;;;;;;4.00;2.63;;;14.60;69.70;;;;;;6132715;23;20402;-86
2022/05/29 01:44:41;;;;;;;3.07;2.43;;;14.60;69.30;;;;;;6133066;23;20405;-86
2022/05/29 01:47:14;;;;;;;3.77;2.33;;;14.50;68.90;;;;;;6135879;23;20725;-86
2022/05/29 01:49:46;;;;;;;3.13;2.40;;;14.60;69.20;;;;;;6137574;23;20428;-85
2022/05/29 01:52:17;;;;;;;4.20;2.33;;;14.60;68.30;;;;;;6148942;23;20426;-88
2022/05/29 01:54:47;;;;;;;4.70;1.87;;;14.60;67.20;;;;;;6145483;23;20462;-86
2022/05/29 01:57:17;;;;;;;2.87;2.43;;;14.50;67.10;;;;;;6137471;23;20413;-86
2022/05/29 01:59:50;;;;;;;2.33;1.90;;;14.50;67.10;;;;;;6136012;23;20396;-86
2022/05/29 02:02:20;;;;;;;3.33;2.40;;;14.50;67.10;;;;;;6134588;23;20462;-86
2022/05/29 02:04:50;;;;;;;5.03;2.40;;;14.50;66.90;;;;;;6134467;23;20456;-86
2022/05/29 02:10:10;;;;;;;3.30;1.80;;;14.30;67.10;;;;;;6133937;23;20399;-87
2022/05/29 02:12:43;;;;;;;5.87;3.00;;;14.30;66.90;;;;;;6133049;23;20437;-87
2022/05/29 02:15:15;;;;;;;2.73;2.23;;;14.20;67.00;;;;;;6134877;23;20396;-86
2022/05/29 02:17:45;;;;;;;4.63;2.17;;;14.10;67.10;;;;;;6132508;23;20380;-85
2022/05/29 02:20:16;;;;;;;4.50;2.47;;;14.20;67.00;;;;;;6133930;23;20388;-86
2022/05/29 02:22:44;;;;;;;4.07;2.20;;;14.10;67.20;;;;;;6134412;23;20490;-85
2022/05/29 02:25:15;;;;;;;3.30;2.17;;;14.10;67.80;;;;;;6133782;23;20407;-87
2022/05/29 02:27:47;;;;;;;4.50;1.87;;;14.00;68.20;;;;;;6134956;23;20393;-85
2022/05/29 02:30:15;;;;;;;4.43;1.80;;;14.00;68.10;;;;;;6133360;23;20390;-86
2022/05/29 02:32:52;;;;;;;3.30;1.83;;;14.00;68.60;;;;;;6133706;23;20427;-87
2022/05/29 02:35:38;;;;;;;3.87;2.80;;;14.10;69.10;;;;;;6136478;23;20727;-86
2022/05/29 02:38:08;;;;;;;5.30;2.67;;;14.10;70.40;;;;;;6134674;23;20387;-86
2022/05/29 02:40:47;;;;;;;3.47;2.43;;;14.00;71.20;;;;;;6134789;23;20396;-85
2022/05/29 02:43:22;;;;;;;7.13;2.40;;;13.90;71.50;;;;;;6139106;23;20432;-86
2022/05/29 02:45:58;;;;;;;3.07;2.50;;;13.80;71.40;;;;;;6153823;23;20379;-85
2022/05/29 02:48:31;;;;;;;3.27;2.17;;;13.70;71.10;;;;;;6152880;23;20421;-87
2022/05/29 02:51:03;;;;;;;2.87;2.13;;;13.60;71.10;;;;;;6150367;23;20393;-87
2022/05/29 02:53:33;;;;;;;4.00;2.53;;;13.60;71.70;;;;;;6142892;23;20442;-86
2022/05/29 02:56:00;;;;;;;3.30;3.00;;;13.60;72.40;;;;;;6132409;23;20418;-86
2022/05/29 02:58:30;;;;;;;9.53;2.93;;;13.60;72.40;;;;;;6129279;23;20410;-86
2022/05/29 03:01:14;;;;;;;3.87;2.43;;;13.60;72.00;;;;;;6135428;23;20407;-86
2022/05/29 03:03:52;;;;;;;6.17;2.43;;;13.70;71.30;;;;;;6133619;23;20430;-85
2022/05/29 03:06:34;;;;;;;3.17;2.30;;;13.80;70.60;;;;;;6134342;23;20419;-85
2022/05/29 03:09:12;;;;;;;2.83;2.50;;;13.80;70.20;;;;;;6135827;23;20438;-85
2022/05/29 03:11:41;;;;;;;3.33;2.20;;;13.80;70.40;;;;;;6136265;23;20450;-85
2022/05/29 03:14:13;;;;;;;3.70;2.50;;;13.80;70.30;;;;;;6136611;23;20440;-85
2022/05/29 03:16:58;;;;;;;6.63;2.63;;;13.80;70.30;;;;;;6136181;23;20400;-86
2022/05/29 03:19:41;;;;;;;5.53;2.77;;;13.80;70.20;;;;;;6136123;23;20399;-85
2022/05/29 03:22:14;;;;;;;3.90;2.67;;;13.80;70.50;;;;;;6153166;23;20405;-87
2022/05/29 03:24:45;;;;;;;2.97;2.27;;;13.80;70.20;;;;;;6148079;23;20415;-85
2022/05/29 03:27:19;;;;;;;5.53;2.03;;;13.80;70.40;;;;;;6146422;23;20397;-87
2022/05/29 03:29:49;;;;;;;3.83;2.30;;;13.80;70.40;;;;;;6150287;23;20441;-86
2022/05/29 03:32:19;;;;;;;3.10;2.00;;;13.80;70.60;;;;;;6138977;23;20428;-85
2022/05/29 03:34:46;;;;;;;5.10;2.10;;;13.80;70.60;;;;;;6141459;23;20407;-85
2022/05/29 03:37:14;;;;;;;3.70;2.27;;;13.80;70.50;;;;;;6138690;23;20403;-85
2022/05/29 03:39:40;;;;;;;4.50;2.40;;;13.80;71.30;;;;;;6136010;23;20851;-85
2022/05/29 03:42:08;;;;;;;3.90;2.50;;;13.80;70.50;;;;;;6137083;23;20413;-83
2022/05/29 03:44:34;;;;;;;3.00;2.57;;;13.80;70.40;;;;;;6137294;23;20421;-85
2022/05/29 03:47:01;;;;;;;3.57;2.37;;;13.80;70.60;;;;;;6137546;23;20418;-85
2022/05/29 03:49:29;;;;;;;3.20;2.40;;;13.80;70.80;;;;;;6137469;23;20964;-85
2022/05/29 03:51:56;;;;;;;2.43;2.13;;;13.70;71.10;;;;;;6137752;23;20415;-84
2022/05/29 03:54:23;;;;;;;7.23;2.87;;;13.60;71.40;;;;;;6137222;23;20409;-85
2022/05/29 03:56:49;;;;;;;4.30;2.77;;;13.60;71.40;;;;;;6136993;23;20752;-83
2022/05/29 03:59:16;;;;;;;3.77;2.93;;;13.70;71.40;;;;;;6136270;23;20412;-84
2022/05/29 04:01:43;;;;;;;5.80;2.53;;;13.70;71.50;;;;;;6138101;23;20409;-85
2022/05/29 04:04:10;;;;;;;5.40;2.83;;;13.70;71.60;;;;;;6136870;23;20425;-84
2022/05/29 04:06:40;;;;;;;2.97;2.60;;;13.70;71.80;;;;;;6136769;23;20744;-85
2022/05/29 04:12:04;;;;;;;3.50;2.20;;;13.70;71.60;;;;;;6142426;23;20432;-83
2022/05/29 04:14:32;;;;;;;6.60;1.93;;;13.60;71.60;;;;;;6153844;23;20375;-82
2022/05/29 04:16:58;;;;;;;4.97;2.70;;;13.70;71.90;;;;;;6143623;23;20406;-85
2022/05/29 04:19:25;;;;;;;2.70;2.00;;;13.60;71.60;;;;;;6137569;23;20401;-84
2022/05/29 04:21:56;;;;;;;3.30;2.40;;;13.70;71.60;;;;;;6132942;23;20401;-85
2022/05/29 04:24:23;;;;;;;2.70;2.03;;;13.60;71.40;;;;;;6135214;23;20385;-85
2022/05/29 04:26:50;;;;;;;4.63;2.97;;;13.60;71.40;;;;;;6136312;23;20416;-85
2022/05/29 04:29:18;;;;;;;3.73;2.80;;;13.60;71.80;;;;;;6135653;23;20444;-84
2022/05/29 04:34:25;;;;;;;5.10;2.60;;;13.50;72.30;;;;;;6137189;23;20393;-83
2022/05/29 04:36:53;;;;;;;4.00;2.40;;;13.50;72.60;;;;;;6136614;23;20406;-86
2022/05/29 04:39:20;;;;;;;4.00;2.33;;;13.40;75.30;;;;;;6135471;23;20419;-85
2022/05/29 04:41:47;;;;;;;5.23;2.87;;;13.20;81.70;;;;;;6136093;23;20402;-84
2022/05/29 04:44:14;;;;;;;5.10;3.50;;;12.90;86.50;;;;;;6140003;23;20806;-85
2022/05/29 04:46:40;;;;;;;4.90;2.93;;;12.70;91.10;;;;;;6135098;23;20943;-85
2022/05/29 04:49:07;;;;;;;3.70;3.30;;;12.60;92.90;;;;;;6132710;23;20826;-84
2022/05/29 04:51:34;;;;;;;3.40;3.03;;;12.40;94.00;;;;;;6137464;23;20423;-84
2022/05/29 04:54:02;;;;;;;3.97;3.43;;;12.30;94.30;;;;;;6147382;23;20430;-83
2022/05/29 04:56:28;;;;;;;5.23;3.53;;;12.20;94.80;;;;;;6141646;23;20407;-84
2022/05/29 04:58:55;;;;;;;4.33;3.10;;;12.10;94.90;;;;;;6131944;23;20400;-84
2022/05/29 05:01:22;;;;;;;5.30;3.27;;;12.10;95.50;;;;;;6132945;23;20407;-83
2022/05/29 05:03:48;;;;;;;4.67;3.10;;;12.10;96.40;;;;;;6131336;23;20421;-86
2022/05/29 05:06:15;;;;;;;5.13;3.60;;;12.10;97.10;;;;;;6142471;23;20972;-86
2022/05/29 05:08:42;;;;;;;8.30;3.23;;;12.10;97.10;;;;;;6148750;23;20429;-85
2022/05/29 05:11:10;;;;;;;5.07;2.80;;;12.30;98.00;;;;;;6154065;23;20398;-87
2022/05/29 05:13:36;;;;;;;3.50;3.20;;;12.30;98.00;;;;;;6143425;23;20432;-87
2022/05/29 05:16:05;;;;;;;3.30;2.67;;;12.40;97.70;;;;;;6139609;23;20422;-86
2022/05/29 05:18:32;;;;;;;4.10;3.20;;;12.40;97.60;;;;;;6138305;23;20392;-86
2022/05/29 05:20:59;;;;;;;5.17;3.37;;;12.50;97.60;;;;;;6139250;23;20392;-85
2022/05/29 05:23:28;;;;;;;4.20;3.10;;;12.70;97.90;;;;;;6151674;23;20434;-85
2022/05/29 05:25:55;;;;;;;4.00;2.87;;;12.70;96.20;;;;;;6135899;23;20392;-85
2022/05/29 05:28:23;;;;;;;3.53;3.17;;;12.70;95.10;;;;;;6135670;23;20404;-86
2022/05/29 05:30:49;;;;;;;4.43;2.90;;;12.80;95.10;;;;;;6135787;23;20405;-85
2022/05/29 05:33:17;;;;;;;4.83;3.50;;;12.80;94.50;;;;;;6134538;23;20435;-87
2022/05/29 05:35:44;;;;;;;4.13;3.00;;;12.90;95.20;;;;;;6135363;23;20487;-87
2022/05/29 05:38:10;;;;;;;5.53;3.13;;;12.90;94.80;;;;;;6136833;23;20407;-87
2022/05/29 05:40:38;;;;;;;4.40;2.70;;;12.90;94.70;;;;;;6143647;23;20408;-87
2022/05/29 05:43:05;;;;;;;4.60;3.17;;;13.00;94.30;;;;;;6142275;23;20482;-86
2022/05/29 05:45:33;;;;;;;6.33;3.03;;;13.00;94.20;;;;;;6136498;23;20421;-86
2022/05/29 05:48:00;;;;;;;4.43;2.60;;;13.10;93.60;;;;;;6134989;23;20416;-87
2022/05/29 05:50:27;;;;;;;3.63;3.00;;;13.20;92.60;;;;;;6133951;23;20768;-86
2022/05/29 05:52:54;;;;;;;5.67;3.10;;;13.30;92.60;;;;;;6140425;23;20405;-85
2022/05/29 05:55:21;;;;;;;3.50;2.73;;;13.30;92.60;;;;;;6148926;23;20417;-89
2022/05/29 05:57:48;;;;;;;5.20;2.90;;;13.40;92.70;;;;;;6134976;23;20801;-85
2022/05/29 06:00:18;;;;;;;5.67;2.60;;;13.50;93.00;;;;;;6133684;23;20744;-86
2022/05/29 06:02:47;;;;;;;5.77;2.60;;;13.60;92.80;;;;;;6132986;23;20448;-86
2022/05/29 06:05:15;;;;;;;4.93;2.83;;;13.80;91.10;;;;;;6134724;23;20491;-86
2022/05/29 06:07:42;;;;;;;4.47;2.87;;;13.90;90.10;;;;;;6133546;23;20415;-85
2022/05/29 06:10:10;;;;;;;4.37;2.60;;;13.90;90.30;;;;;;6132131;23;20445;-85
2022/05/29 06:12:37;;;;;;;3.60;3.00;;;14.00;90.50;;;;;;6131369;23;20461;-85
2022/05/29 06:15:05;;;;;;;5.67;2.80;;;14.50;90.00;;;;;;6133182;23;20390;-85
2022/05/29 06:17:32;;;;;;;6.20;3.20;;;14.80;87.40;;;;;;6133302;23;20403;-85
2022/05/29 06:20:00;;;;;;;3.77;2.80;;;14.70;86.10;;;;;;6132040;23;20406;-84
2022/05/29 06:22:27;;;;;;;6.10;2.80;;;14.70;85.40;;;;;;6132283;23;20930;-85
2022/05/29 06:24:54;;;;;;;3.53;2.90;;;15.00;85.70;;;;;;6137835;23;20411;-87
2022/05/29 06:27:21;;;;;;;2.90;2.60;;;15.80;83.30;;;;;;6154107;23;20383;-88
2022/05/29 06:29:47;;;;;;;3.70;2.13;;;16.20;79.70;;;;;;6139860;23;20440;-85
2022/05/29 06:32:15;;;;;;;2.67;2.40;;;17.00;79.20;;;;;;6137176;23;20443;-86
2022/05/29 06:34:42;;;;;;;6.07;2.40;;;18.50;75.50;;;;;;6144268;23;20393;-86
2022/05/29 06:37:10;;;;;;;3.60;3.03;;;19.80;69.80;;;;;;6140469;23;20413;-87
2022/05/29 06:39:38;;;;;;;4.40;2.50;;;20.70;65.30;;;;;;6135226;23;20779;-86
2022/05/29 06:42:05;;;;;;;4.60;2.40;;;21.70;59.90;;;;;;6131960;23;20405;-87
2022/05/29 06:44:32;;;;;;;3.67;2.43;;;22.50;57.20;;;;;;6129749;23;20420;-86
2022/05/29 06:46:59;;;;;;;3.93;2.03;;;21.60;56.10;;;;;;6130139;23;20416;-86
2022/05/29 06:49:25;;;;;;;3.97;2.00;;;20.90;57.10;;;;;;6132857;23;20446;-86
2022/05/29 06:51:52;;;;;;;2.93;1.90;;;19.30;58.70;;;;;;6145903;23;20415;-87
2022/05/29 06:54:20;;;;;;;4.37;2.50;;;18.60;61.00;;;;;;6152320;23;20443;-88
2022/05/29 06:56:46;;;;;;;4.43;2.20;;;17.80;62.10;;;;;;6142019;23;20892;-86
2022/05/29 06:59:13;;;;;;;3.50;2.23;;;17.40;64.60;;;;;;6137533;23;20403;-86
2022/05/29 07:07:17;;;;;;;3.93;2.20;;;17.30;66.90;;;;;;6133309;23;20382;-86
2022/05/29 07:09:45;;;;;;;3.90;2.00;;;16.90;66.50;;;;;;6133479;23;20857;-85
2022/05/29 07:14:47;;;;;;;3.73;2.13;;;16.80;67.30;;;;;;6223882;23;20431;-86
2022/05/29 07:17:14;;;;;;;5.30;2.73;;;16.70;67.50;;;;;;6225805;23;20408;-86
2022/05/29 07:19:42;;;;;;;3.97;2.10;;;16.70;68.00;;;;;;6222228;23;20887;-85
2022/05/29 07:22:11;;;;;;;2.90;2.17;;;16.50;66.30;;;;;;6223960;23;20389;-86
2022/05/29 07:24:38;;;;;;;3.70;2.30;;;16.50;66.80;;;;;;6194675;23;20437;-86
2022/05/29 07:27:07;;;;;;;2.80;1.93;;;16.30;67.30;;;;;;6192339;23;20394;-86
2022/05/29 07:29:35;;;;;;;4.83;2.60;;;16.00;66.70;;;;;;6192135;23;20447;-86
2022/05/29 07:32:03;;;;;;;6.83;3.10;;;15.90;68.10;;;;;;6191616;23;20414;-86
2022/05/29 07:34:30;;;;;;;3.00;2.27;;;15.90;69.10;;;;;;6189086;23;20623;-87
2022/05/29 07:37:03;;;;;;;8.90;2.40;;;16.00;69.70;;;;;;6189574;23;20418;-86
2022/05/29 07:39:34;;;;;;;5.93;2.93;;;16.10;69.50;;;;;;6190279;23;20390;-85
2022/05/29 07:44:47;;;;;;;4.63;2.10;;;16.40;68.10;;;;;;6192361;23;20827;-85
2022/05/29 07:47:14;;;;;;;4.03;2.20;;;16.60;67.30;;;;;;6210352;23;20409;-86
2022/05/29 07:49:40;;;;;;;7.03;2.20;;;16.80;66.00;;;;;;6203392;23;20438;-85
2022/05/29 07:52:07;;;;;;;6.10;2.63;;;16.80;65.60;;;;;;6199379;23;20473;-85
2022/05/29 07:54:34;;;;;;;3.57;2.20;;;17.10;65.70;;;;;;6206637;23;20456;-86
2022/05/29 07:57:01;;;;;;;4.10;1.97;;;18.00;64.20;;;;;;6195060;23;20429;-83
2022/05/29 07:59:28;;;;;;;7.20;2.37;;;18.70;61.50;;;;;;6189858;23;20386;-82
2022/05/29 08:01:56;;;;;;;4.60;2.33;;;18.80;60.40;;;;;;6191790;23;20734;-83
2022/05/29 08:04:23;;;;;;;6.33;3.03;;;19.00;60.50;;;;;;6190863;23;20435;-83
2022/05/29 08:06:50;;;;;;;4.53;2.77;;;19.40;59.70;;;;;;6189836;23;20416;-83
2022/05/29 08:09:16;;;;;;;5.77;2.37;;;20.60;58.60;;;;;;6202278;23;20421;-82
2022/05/29 08:11:44;;;;;;;4.93;2.07;;;20.50;57.00;;;;;;6203713;23;20410;-83
2022/05/29 08:14:11;;;;;;;7.13;2.67;;;20.40;57.70;;;;;;6207503;23;20421;-83
2022/05/29 08:16:39;;;;;;;6.30;2.27;;;20.30;57.70;;;;;;6196929;23;20414;-82
2022/05/29 08:19:08;;;;;;;4.33;1.97;;;20.20;57.50;;;;;;6189566;23;20410;-83
2022/05/29 08:21:35;;;;;;;4.23;2.43;;;20.30;57.50;;;;;;6190191;23;20390;-83
2022/05/29 08:32:14;;;;;;;3.37;1.80;;;20.20;56.30;;;;;;6190867;23;20404;-82
2022/05/29 08:34:43;;;;;;;3.80;2.30;;;19.80;57.40;;;;;;6197329;23;20448;-87
2022/05/29 08:37:11;;;;;;;5.00;2.53;;;19.50;57.70;;;;;;6203805;23;20420;-82
2022/05/29 08:39:37;;;;;;;3.97;2.50;;;19.50;58.20;;;;;;6194704;23;20420;-84
2022/05/29 08:42:05;;;;;;;3.43;2.43;;;19.60;57.50;;;;;;6194074;23;20418;-82
2022/05/29 08:44:40;;;;;;;4.03;2.13;;;20.10;57.10;;;;;;6206197;23;20404;-83
2022/05/29 08:47:08;;;;;;;4.73;2.60;;;21.70;56.20;;;;;;6211931;23;20375;-83
2022/05/29 08:49:40;;;;;;;6.60;2.47;;;24.40;52.00;;;;;;6206641;23;20389;-83
2022/05/29 08:52:21;;;;;;;4.67;2.20;;;25.40;47.20;;;;;;6196802;23;20398;-85
2022/05/29 08:54:51;;;;;;;3.17;2.00;;;24.30;47.20;;;;;;6192620;23;20420;-83
2022/05/29 08:57:40;;;;;;;6.10;2.57;;;23.20;49.70;;;;;;6193641;23;20401;-86
2022/05/29 09:00:13;;;;;;;4.80;2.53;;;23.40;49.10;;;;;;6194464;23;20914;-84
2022/05/29 09:03:04;;;;;;;3.60;2.10;;;24.10;48.60;;;;;;6199221;23;20835;-91
2022/05/29 09:05:36;;;;;;;7.53;2.10;;;23.60;48.20;;;;;;6201278;23;20408;-89
2022/05/29 09:08:14;;;;;;;3.63;2.60;;;22.30;49.40;;;;;;6198584;23;20418;-90
2022/05/29 09:14:23;;;;;;;7.60;2.50;;;20.50;52.70;;;;;;6188551;23;20446;-90
2022/05/29 09:16:56;;;;;;;4.97;2.13;;;20.70;53.30;;;;;;6186258;23;20458;-83
2022/05/29 09:19:33;;;;;;;5.00;3.33;;;20.60;53.00;;;;;;6189828;23;20397;-82
2022/05/29 09:22:03;;;;;;;3.90;2.17;;;20.60;52.80;;;;;;6191271;23;20392;-83
2022/05/29 09:24:41;;;;;;;4.90;2.40;;;20.50;53.20;;;;;;6192979;23;20402;-83
2022/05/29 09:27:10;;;;;;;6.53;2.30;;;20.30;54.10;;;;;;6203250;23;20374;-85
2022/05/29 09:29:37;;;;;;;7.90;3.50;;;20.20;54.20;;;;;;6204421;23;20398;-85
2022/05/29 09:32:05;;;;;;;4.63;2.20;;;19.80;54.60;;;;;;6198111;23;20485;-85
2022/05/29 09:34:32;;;;;;;6.50;2.30;;;19.70;55.10;;;;;;6196742;23;20543;-86
2022/05/29 09:37:07;;;;;;;6.60;2.50;;;19.60;55.50;;;;;;6192282;23;20408;-85
2022/05/29 09:39:39;;;;;;;5.10;2.80;;;19.30;55.50;;;;;;6189954;23;20881;-84
2022/05/29 09:42:11;;;;;;;4.00;2.27;;;19.10;55.60;;;;;;6191171;23;20396;-84
2022/05/29 09:44:38;;;;;;;3.27;2.00;;;18.90;55.90;;;;;;6188840;23;20493;-84
2022/05/29 09:50:08;;;;;;;4.10;2.27;;;18.50;56.70;;;;;;6187839;23;20392;-85
2022/05/29 09:52:40;;;;;;;5.80;2.70;;;18.40;57.40;;;;;;6186307;23;20402;-85
2022/05/29 09:55:24;;;;;;;7.70;2.80;;;18.40;57.50;;;;;;6187168;23;20828;-85
2022/05/29 09:57:53;;;;;;;5.07;2.40;;;17.90;57.70;;;;;;6186265;23;20397;-85
2022/05/29 10:00:28;;;;;;;3.40;1.97;;;17.70;58.60;;;;;;6194939;23;20378;-85
2022/05/29 10:02:55;;;;;;;8.20;2.60;;;17.40;59.30;;;;;;6206057;23;20437;-85
2022/05/29 10:05:25;;;;;;;5.73;2.60;;;17.00;60.00;;;;;;6198128;23;20493;-85
2022/05/29 10:07:54;;;;;;;5.33;2.37;;;16.90;60.80;;;;;;6189773;23;20394;-85
2022/05/29 10:10:35;;;;;;;4.53;2.20;;;17.00;61.40;;;;;;6189322;23;20984;-87
2022/05/29 10:13:03;;;;;;;4.90;2.50;;;17.50;60.70;;;;;;6189843;23;20935;-85
2022/05/29 10:15:37;;;;;;;2.67;1.70;;;17.90;59.30;;;;;;6187934;23;20489;-84
2022/05/29 10:18:11;;;;;;;4.90;1.90;;;18.30;58.70;;;;;;6186463;23;20394;-85
2022/05/29 10:20:42;;;;;;;3.00;1.93;;;18.40;58.10;;;;;;6186674;23;20465;-84
2022/05/29 10:23:11;;;;;;;3.23;1.50;;;18.60;57.30;;;;;;6189254;23;20430;-86
2022/05/29 10:25:54;;;;;;;6.50;2.00;;;18.80;56.80;;;;;;6193618;23;20413;-86
2022/05/29 10:28:27;;;;;;;4.20;2.17;;;19.00;55.80;;;;;;6190871;23;20915;-88
2022/05/29 10:30:58;;;;;;;4.50;2.20;;;19.00;55.40;;;;;;6190328;23;20961;-85
2022/05/29 10:33:27;;;;;;;6.00;1.70;;;18.60;55.60;;;;;;6196955;23;20493;-84
2022/05/29 10:35:59;;;;;;;3.63;1.87;;;18.10;56.30;;;;;;6190124;23;20733;-86
2022/05/29 10:38:29;;;;;;;4.93;1.80;;;17.70;56.40;;;;;;6187178;23;20869;-85
2022/05/29 10:40:59;;;;;;;4.83;2.77;;;17.30;57.40;;;;;;6189420;23;20386;-85
2022/05/29 10:43:38;;;;;;;4.13;1.80;;;17.00;58.70;;;;;;6194421;23;20406;-85
2022/05/29 10:46:09;;;;;;;4.20;1.97;;;16.80;59.40;;;;;;6210173;23;20532;-85
2022/05/29 10:49:01;;;;;;;5.03;1.90;;;16.70;59.80;;;;;;6209613;23;20389;-85
2022/05/29 10:51:39;;;;;;;6.47;2.03;;;16.60;60.50;;;;;;6208058;23;20489;-84
2022/05/29 10:54:17;;;;;;;4.40;2.90;;;16.50;61.00;;;;;;6211803;23;20440;-87
2022/05/29 10:57:07;;;;;;;6.30;2.40;;;16.50;61.50;;;;;;6211705;23;20469;-86
2022/05/29 11:00:02;;;;;;;7.43;3.60;;;16.40;62.10;;;;;;6206241;23;20735;-84
2022/05/29 11:03:31;;;;;;;8.23;5.80;;;16.30;66.40;;;;;;6188848;23;20810;-85
2022/05/29 11:13:16;;;;;;;4.80;2.97;;;15.70;71.00;;;;;;6197122;23;20404;-85
2022/05/29 11:16:02;;;;;;;5.07;3.30;;;15.80;71.50;;;;;;6199078;23;20437;-85
2022/05/29 11:18:59;;;;;;;6.37;3.23;;;15.80;70.90;;;;;;6207998;23;20370;-85
2022/05/29 11:21:55;;;;;;;7.30;3.40;;;16.00;70.80;;;;;;6191304;23;20472;-86
2022/05/29 11:24:58;;;;;;;5.00;3.20;;;16.30;69.00;;;;;;6188662;23;20444;-85
2022/05/29 11:28:04;;;;;;;5.20;2.57;;;16.40;68.10;;;;;;6190658;23;20409;-86
2022/05/29 11:31:02;;;;;;;4.07;2.43;;;16.40;66.70;;;;;;6190810;23;20508;-85
2022/05/29 11:33:45;;;;;;;8.00;2.30;;;16.30;66.10;;;;;;6188587;23;20433;-86
2022/05/29 11:36:36;;;;;;;3.73;2.20;;;16.40;66.70;;;;;;6191562;23;20406;-86
2022/05/29 11:39:30;;;;;;;4.30;2.27;;;16.60;66.70;;;;;;6189911;23;20398;-86
2022/05/29 11:42:09;;;;;;;4.10;2.13;;;16.50;67.80;;;;;;6188150;23;20378;-86
2022/05/29 11:44:46;;;;;;;3.90;2.10;;;16.60;66.80;;;;;;6188109;23;20429;-85
2022/05/29 11:53:33;;;;;;;4.80;2.10;;;18.30;60.60;;;;;;6137093;23;20415;-86
2022/05/29 11:56:07;;;;;;;3.53;2.07;;;19.40;58.60;;;;;;6206948;23;20415;-86
2022/05/29 11:58:44;;;;;;;4.43;2.23;;;20.20;59.20;;;;;;6209080;23;20404;-85
2022/05/29 12:01:18;;;;;;;3.80;2.30;;;19.20;61.80;;;;;;6214260;23;20387;-85
2022/05/29 12:04:13;;;;;;;7.23;3.23;;;17.60;65.90;;;;;;6211705;23;20449;-86
2022/05/29 12:07:05;;;;;;;6.00;2.10;;;16.40;73.20;;;;;;6208593;23;20747;-86
2022/05/29 12:09:43;;;;;;;4.40;2.47;;;17.30;75.20;;;;;;6208575;23;20420;-87
2022/05/29 12:12:19;;;;;;;3.20;2.10;;;18.50;72.00;;;;;;6210606;23;20472;-86
2022/05/29 12:15:16;;;;;;;4.30;3.60;;;18.10;71.30;;;;;;6205293;23;20447;-86
2022/05/29 12:18:06;;;;;;;5.23;2.20;;;17.30;74.00;;;;;;6196170;23;20425;-87
2022/05/29 12:20:45;;;;;;;4.27;2.30;;;17.20;74.40;;;;;;6189169;23;20395;-88
2022/05/29 12:23:31;;;;;;;3.50;2.10;;;18.00;72.20;;;;;;6188587;23;20425;-85
2022/05/29 12:26:03;;;;;;;4.30;2.50;;;19.90;66.90;;;;;;6188447;23;20394;-85
2022/05/29 12:28:44;;;;;;;4.30;2.30;;;22.00;59.40;;;;;;6188363;23;20475;-85
2022/05/29 12:31:18;;;;;;;3.40;1.77;;;24.00;55.00;;;;;;6197292;23;20473;-85
2022/05/29 12:33:49;;;;;;;3.27;2.00;;;24.20;52.50;;;;;;6195993;23;20430;-85
2022/05/29 12:36:29;;;;;;;2.77;1.97;;;21.70;55.70;;;;;;6188402;23;20912;-85
2022/05/29 12:39:17;;;;;;;5.00;1.73;;;21.20;56.50;;;;;;6187538;23;20432;-83
2022/05/29 12:42:13;;;;;;;3.97;2.10;;;22.10;56.00;;;;;;6187652;23;20780;-85
2022/05/29 12:45:27;;;;;;;5.13;2.10;;;22.90;53.90;;;;;;6185845;23;20466;-84
2022/05/29 12:48:27;;;;;;;7.57;2.57;;;22.90;52.70;;;;;;6179021;23;20920;-84
2022/05/29 12:51:30;;;;;;;3.37;1.70;;;23.80;51.20;;;;;;6186629;23;20447;-85
2022/05/29 12:54:31;;;;;;;3.73;1.90;;;24.30;50.90;;;;;;6187203;23;20438;-84
2022/05/29 12:57:22;;;;;;;4.43;1.90;;;24.60;47.90;;;;;;6199842;23;20396;-83
2022/05/29 13:00:17;;;;;;;3.20;1.60;;;24.50;47.40;;;;;;6130834;23;20431;-84
2022/05/29 13:03:23;;;;;;;2.80;1.70;;;24.60;49.00;;;;;;6187481;23;20446;-84
2022/05/29 13:06:07;;;;;;;3.07;1.63;;;24.90;48.40;;;;;;6187812;23;20399;-84
2022/05/29 13:09:03;;;;;;;5.63;1.60;;;25.70;48.20;;;;;;6186708;23;20744;-84
2022/05/29 13:11:34;;;;;;;5.80;1.80;;;25.80;45.10;;;;;;6200695;23;20507;-85
2022/05/29 13:14:04;;;;;;;3.70;1.97;;;24.40;47.40;;;;;;6203776;23;20471;-84
2022/05/29 13:16:38;;;;;;;4.23;1.73;;;24.80;48.40;;;;;;6197261;23;20397;-87
2022/05/29 13:22:02;;;;;;;3.50;2.23;;;24.80;45.10;;;;;;6189157;23;20641;-87
2022/05/29 13:27:32;;;;;;;2.90;1.53;;;25.40;44.10;;;;;;6190006;23;20933;-86
2022/05/29 13:30:08;;;;;;;3.00;1.50;;;25.50;43.70;;;;;;6190328;23;20416;-85
2022/05/29 13:32:38;;;;;;;3.60;1.70;;;24.30;44.10;;;;;;6190419;23;20443;-85
2022/05/29 13:35:46;;;;;;;1.87;1.30;;;24.60;45.00;;;;;;6196115;23;20413;-84
2022/05/29 13:38:53;;;;;;;2.93;1.53;;;24.00;44.80;;;;;;6200168;23;20377;-85
2022/05/29 13:41:29;;;;;;;2.20;1.20;;;22.40;46.60;;;;;;6209520;23;20417;-83
2022/05/29 13:43:58;;;;;;;3.00;2.20;;;22.50;47.30;;;;;;6208937;23;20427;-86
2022/05/29 13:46:27;;;;;;;3.50;1.67;;;23.40;45.80;;;;;;6192792;23;20391;-85
2022/05/29 13:49:20;;;;;;;4.80;1.53;;;23.20;46.00;;;;;;6192368;23;20415;-84
2022/05/29 13:51:54;;;;;;;3.20;2.00;;;24.00;45.80;;;;;;6193436;23;20830;-85
2022/05/29 13:54:25;;;;;;;4.33;2.00;;;24.90;45.10;;;;;;6189841;23;20516;-85
2022/05/29 13:57:08;;;;;;;4.87;1.60;;;25.60;43.60;;;;;;6187239;23;20398;-86
2022/05/29 14:05:36;;;;;;;2.60;1.20;;;24.20;43.90;;;;;;6191010;23;20455;-85
2022/05/29 14:08:25;;;;;;;4.80;2.10;;;21.50;47.40;;;;;;6186207;23;20406;-85
2022/05/29 14:10:54;;;;;;;5.00;1.87;;;20.30;49.80;;;;;;6196280;23;20398;-84
2022/05/29 14:13:32;;;;;;;3.10;1.90;;;19.70;51.00;;;;;;6185443;23;20760;-85
2022/05/29 14:16:04;;;;;;;3.00;1.90;;;19.40;51.90;;;;;;6206669;23;20402;-85
2022/05/29 14:18:38;;;;;;;4.30;1.50;;;19.20;53.10;;;;;;6198555;23;20391;-91